Time;durP1;ratioP1;P1;durP2;ratioP2;P2;SDS_P1;SDS_P2;PMS_P1;PMS_P2;Temp;Humidity;BMP_temperature;BMP_pressure;BME280_temperature;BME280_humidity;BME280_pressure;Samples;Min_cycle;Max_cycle;Signal;HPM_P1;HPM_P2
2021/09/27 00:00:37;;;;;;;8.93;2.15;;;;;;;;;;5058352;28;20059;-64
2021/09/27 00:03:04;;;;;;;5.95;1.88;;;;;;;;;;5056444;28;20041;-64
2021/09/27 00:05:31;;;;;;;19.23;2.60;;;;;;;;;;5056504;28;20052;-64
2021/09/27 00:07:58;;;;;;;7.85;2.20;;;;;;;;;;5058778;28;20092;-64
2021/09/27 00:10:26;;;;;;;6.03;1.67;;;;;;;;;;5060170;28;20068;-64
2021/09/27 00:12:53;;;;;;;5.13;2.00;;;;;;;;;;5060652;28;20079;-64
2021/09/27 00:15:23;;;;;;;12.02;1.95;;;;;;;;;;5058916;28;20048;-64
2021/09/27 00:17:49;;;;;;;3.92;1.83;;;;;;;;;;5053681;28;20075;-64
2021/09/27 00:20:16;;;;;;;9.82;2.05;;;;;;;;;;5056897;28;20140;-64
2021/09/27 00:22:42;;;;;;;10.40;2.55;;;;;;;;;;5053393;28;20139;-64
2021/09/27 00:25:09;;;;;;;9.15;2.35;;;;;;;;;;5061700;28;20720;-64
2021/09/27 00:27:36;;;;;;;12.07;2.50;;;;;;;;;;5062895;28;20079;-64
2021/09/27 00:30:03;;;;;;;16.83;2.27;;;;;;;;;;5062850;28;20128;-64
2021/09/27 00:32:30;;;;;;;7.20;2.13;;;;;;;;;;5060828;28;20152;-64
2021/09/27 00:34:56;;;;;;;12.70;2.60;;;;;;;;;;5059845;28;20128;-64
2021/09/27 00:37:23;;;;;;;10.53;2.10;;;;;;;;;;5063526;28;20048;-64
2021/09/27 00:39:49;;;;;;;13.05;2.20;;;;;;;;;;5061098;28;20422;-64
2021/09/27 00:42:16;;;;;;;9.80;2.08;;;;;;;;;;5059726;28;20148;-64
2021/09/27 00:44:43;;;;;;;11.27;2.20;;;;;;;;;;5058947;28;20501;-64
2021/09/27 00:47:09;;;;;;;7.78;2.00;;;;;;;;;;5056948;28;20133;-64
2021/09/27 00:49:36;;;;;;;11.18;2.08;;;;;;;;;;5060354;28;20084;-64
2021/09/27 00:52:03;;;;;;;10.40;2.07;;;;;;;;;;5059831;28;20167;-64
2021/09/27 00:54:33;;;;;;;12.75;2.65;;;;;;;;;;5062306;28;20389;-64
2021/09/27 00:57:04;;;;;;;10.88;2.60;;;;;;;;;;5060853;28;20133;-64
2021/09/27 00:59:31;;;;;;;9.25;2.10;;;;;;;;;;5061106;28;20143;-64
2021/09/27 01:01:58;;;;;;;8.02;2.58;;;;;;;;;;5058842;28;20155;-64
2021/09/27 01:04:24;;;;;;;12.88;2.28;;;;;;;;;;5065251;28;20059;-64
2021/09/27 01:06:58;;;;;;;12.63;2.25;;;;;;;;;;5053498;28;20114;-64
2021/09/27 01:09:35;;;;;;;13.48;2.15;;;;;;;;;;5062617;28;20131;-64
2021/09/27 01:12:01;;;;;;;9.85;2.13;;;;;;;;;;5061255;28;20122;-64
2021/09/27 01:14:43;;;;;;;13.23;2.10;;;;;;;;;;5056653;28;20176;-64
2021/09/27 01:17:10;;;;;;;17.75;2.47;;;;;;;;;;5063393;28;20082;-64
2021/09/27 01:19:36;;;;;;;13.73;3.13;;;;;;;;;;5058157;28;20051;-64
2021/09/27 01:22:13;;;;;;;13.25;2.67;;;;;;;;;;5060672;28;20071;-64
2021/09/27 01:24:52;;;;;;;14.30;2.90;;;;;;;;;;5058239;28;20136;-64
2021/09/27 01:27:18;;;;;;;;;;;;;;;;;;5059368;28;20079;-64
2021/09/27 01:29:48;;;;;;;11.43;2.70;;;;;;;;;;5060291;28;19962;-64
2021/09/27 01:32:26;;;;;;;11.75;2.35;;;;;;;;;;5066866;28;20136;-64
2021/09/27 01:35:12;;;;;;;8.57;2.13;;;;;;;;;;5059335;28;20136;-64
2021/09/27 01:37:57;;;;;;;8.57;2.40;;;;;;;;;;5056744;28;20087;-64
2021/09/27 01:40:26;;;;;;;14.88;2.88;;;;;;;;;;5056278;28;20048;-64
2021/09/27 01:43:00;;;;;;;11.80;2.58;;;;;;;;;;5060413;28;20479;-64
2021/09/27 01:45:34;;;;;;;11.05;2.60;;;;;;;;;;5055881;28;20151;-64
2021/09/27 01:48:12;;;;;;;10.02;2.05;;;;;;;;;;5061296;28;20136;-64
2021/09/27 01:50:49;;;;;;;11.23;2.22;;;;;;;;;;5060863;28;20088;-64
2021/09/27 01:53:19;;;;;;;9.82;2.13;;;;;;;;;;5060326;28;20454;-64
2021/09/27 01:56:05;;;;;;;10.80;2.35;;;;;;;;;;5056698;28;20779;-64
2021/09/27 01:58:36;;;;;;;10.98;2.50;;;;;;;;;;5062017;28;20132;-64
2021/09/27 02:01:05;;;;;;;7.80;2.55;;;;;;;;;;5057818;28;20068;-64
2021/09/27 02:03:48;;;;;;;11.85;2.40;;;;;;;;;;5061541;28;20122;-64
2021/09/27 02:06:27;;;;;;;9.10;2.20;;;;;;;;;;5060611;28;20127;-64
2021/09/27 02:09:12;;;;;;;12.82;2.10;;;;;;;;;;5059108;28;20505;-64
2021/09/27 02:11:40;;;;;;;10.15;2.13;;;;;;;;;;5060535;28;20127;-64
2021/09/27 02:14:12;;;;;;;10.75;2.15;;;;;;;;;;5060879;28;20068;-63
2021/09/27 02:16:42;;;;;;;7.47;1.80;;;;;;;;;;5059025;28;20053;-64
2021/09/27 02:19:09;;;;;;;13.45;3.03;;;;;;;;;;5062034;28;20052;-64
2021/09/27 02:21:37;;;;;;;12.23;1.98;;;;;;;;;;5061374;28;20049;-64
2021/09/27 02:24:06;;;;;;;10.05;2.20;;;;;;;;;;5056549;28;20468;-64
2021/09/27 02:26:33;;;;;;;13.80;2.17;;;;;;;;;;5060686;28;20123;-64
2021/09/27 02:28:59;;;;;;;8.25;2.88;;;;;;;;;;5061182;28;20463;-64
2021/09/27 02:31:26;;;;;;;7.13;2.15;;;;;;;;;;5058873;28;20124;-64
2021/09/27 02:34:05;;;;;;;12.13;1.80;;;;;;;;;;5055404;28;20053;-64
2021/09/27 02:36:34;;;;;;;10.07;2.22;;;;;;;;;;5058612;28;20584;-64
2021/09/27 02:39:07;;;;;;;8.90;2.42;;;;;;;;;;5057573;28;20535;-64
2021/09/27 02:41:36;;;;;;;11.15;2.80;;;;;;;;;;5058940;28;20132;-64
2021/09/27 02:44:04;;;;;;;15.40;2.40;;;;;;;;;;5059728;28;20520;-64
2021/09/27 02:46:30;;;;;;;8.15;2.03;;;;;;;;;;5058181;28;20502;-64
2021/09/27 02:49:09;;;;;;;11.80;2.20;;;;;;;;;;5055948;28;20589;-64
2021/09/27 02:51:37;;;;;;;11.23;2.30;;;;;;;;;;5062289;28;20488;-64
2021/09/27 02:54:04;;;;;;;7.57;2.03;;;;;;;;;;5052975;28;20489;-64
2021/09/27 02:56:31;;;;;;;13.35;2.33;;;;;;;;;;5058554;28;20124;-64
2021/09/27 02:59:16;;;;;;;7.70;2.25;;;;;;;;;;5057233;28;20045;-64
2021/09/27 03:02:01;;;;;;;10.65;2.30;;;;;;;;;;5058842;28;20136;-64
2021/09/27 03:04:31;;;;;;;10.23;2.33;;;;;;;;;;5059461;28;20416;-64
2021/09/27 03:07:17;;;;;;;16.58;2.92;;;;;;;;;;5057627;28;20110;-64
2021/09/27 03:09:43;;;;;;;15.57;2.85;;;;;;;;;;5058749;28;20041;-64
2021/09/27 03:12:10;;;;;;;15.07;2.60;;;;;;;;;;5057012;28;20101;-64
2021/09/27 03:14:53;;;;;;;12.93;2.50;;;;;;;;;;5061419;28;20479;-64
2021/09/27 03:17:36;;;;;;;11.88;2.60;;;;;;;;;;5056250;28;20140;-64
2021/09/27 03:20:11;;;;;;;7.22;1.83;;;;;;;;;;5054571;28;20132;-64
2021/09/27 03:22:41;;;;;;;10.52;2.50;;;;;;;;;;5057441;28;20533;-64
2021/09/27 03:25:26;;;;;;;9.55;2.17;;;;;;;;;;5056375;28;20083;-64
2021/09/27 03:28:11;;;;;;;9.52;2.30;;;;;;;;;;5063811;28;20123;-64
2021/09/27 03:30:40;;;;;;;9.23;2.03;;;;;;;;;;5062937;28;20056;-64
2021/09/27 03:33:10;;;;;;;14.63;2.45;;;;;;;;;;5055615;28;20079;-64
2021/09/27 03:35:50;;;;;;;9.65;2.35;;;;;;;;;;5055565;28;20080;-64
2021/09/27 03:38:17;;;;;;;16.10;2.65;;;;;;;;;;5059104;28;20591;-63
2021/09/27 03:40:53;;;;;;;10.43;2.08;;;;;;;;;;5061183;28;20127;-64
2021/09/27 03:43:35;;;;;;;11.88;2.80;;;;;;;;;;5057386;28;20670;-64
2021/09/27 03:46:07;;;;;;;14.02;2.55;;;;;;;;;;5055982;28;20465;-63
2021/09/27 03:48:40;;;;;;;14.63;2.17;;;;;;;;;;5056979;28;20049;-64
2021/09/27 03:51:13;;;;;;;10.05;2.45;;;;;;;;;;5062450;28;20133;-64
2021/09/27 03:53:49;;;;;;;8.50;2.05;;;;;;;;;;5057889;28;20520;-64
2021/09/27 03:56:21;;;;;;;13.73;2.58;;;;;;;;;;5054134;28;20092;-64
2021/09/27 03:58:57;;;;;;;8.45;2.10;;;;;;;;;;5059859;28;20091;-64
2021/09/27 04:01:59;;;;;;;12.68;2.50;;;;;;;;;;5066207;28;20132;-64
2021/09/27 04:04:32;;;;;;;9.68;2.42;;;;;;;;;;4985820;28;20047;-65
2021/09/27 04:07:13;;;;;;;8.50;2.15;;;;;;;;;;5046307;28;20585;-64
2021/09/27 04:09:58;;;;;;;12.80;2.20;;;;;;;;;;5064846;28;20543;-64
2021/09/27 04:12:31;;;;;;;14.15;2.00;;;;;;;;;;5063842;28;20127;-64
2021/09/27 04:15:16;;;;;;;5.57;1.90;;;;;;;;;;5058894;28;20401;-64
2021/09/27 04:18:01;;;;;;;10.73;2.45;;;;;;;;;;5058617;28;20059;-64
2021/09/27 04:20:47;;;;;;;15.88;2.60;;;;;;;;;;5062782;28;20573;-64
2021/09/27 04:23:13;;;;;;;10.73;2.08;;;;;;;;;;5060341;28;20531;-64
2021/09/27 04:25:40;;;;;;;10.48;2.42;;;;;;;;;;5065990;28;20135;-64
2021/09/27 04:28:16;;;;;;;8.30;2.30;;;;;;;;;;5061692;28;20041;-64
2021/09/27 04:30:52;;;;;;;11.63;3.17;;;;;;;;;;5060535;28;20087;-64
2021/09/27 04:33:37;;;;;;;15.52;2.85;;;;;;;;;;5061595;28;20056;-64
2021/09/27 04:36:04;;;;;;;11.52;2.60;;;;;;;;;;5060858;28;20132;-64
2021/09/27 04:38:32;;;;;;;8.05;1.83;;;;;;;;;;5056092;28;20107;-64
2021/09/27 04:41:03;;;;;;;13.05;2.47;;;;;;;;;;5062205;28;20048;-64
2021/09/27 04:43:46;;;;;;;11.82;2.42;;;;;;;;;;5059789;28;20060;-64
2021/09/27 04:46:29;;;;;;;13.82;2.60;;;;;;;;;;5061140;28;20479;-64
2021/09/27 04:49:03;;;;;;;11.65;2.67;;;;;;;;;;5059848;28;20040;-64
2021/09/27 04:51:50;;;;;;;11.52;2.45;;;;;;;;;;5062610;28;20474;-64
2021/09/27 04:54:35;;;;;;;10.90;2.25;;;;;;;;;;5064774;28;20052;-64
2021/09/27 04:57:11;;;;;;;12.40;2.30;;;;;;;;;;5058154;28;20128;-64
2021/09/27 04:59:44;;;;;;;15.55;2.83;;;;;;;;;;5066134;28;20129;-64
2021/09/27 05:02:30;;;;;;;9.20;2.35;;;;;;;;;;5064324;28;20090;-64
2021/09/27 05:05:15;;;;;;;9.02;1.75;;;;;;;;;;5061784;28;20132;-64
2021/09/27 05:07:50;;;;;;;8.90;2.30;;;;;;;;;;5060678;28;20044;-64
2021/09/27 05:10:43;;;;;;;8.70;2.25;;;;;;;;;;5062359;28;20059;-64
2021/09/27 05:13:25;;;;;;;12.77;2.63;;;;;;;;;;5055581;28;20140;-64
2021/09/27 05:16:20;;;;;;;11.70;2.80;;;;;;;;;;5063325;28;20136;-64
2021/09/27 05:18:55;;;;;;;7.85;2.05;;;;;;;;;;5057278;28;20103;-64
2021/09/27 05:21:22;;;;;;;12.20;2.30;;;;;;;;;;5063683;28;20128;-64
2021/09/27 05:23:57;;;;;;;14.20;2.42;;;;;;;;;;5060535;28;20087;-64
2021/09/27 05:26:33;;;;;;;11.75;2.53;;;;;;;;;;5058721;28;20052;-64
2021/09/27 05:29:03;;;;;;;6.72;2.00;;;;;;;;;;5064826;28;20127;-64
2021/09/27 05:31:40;;;;;;;9.27;2.00;;;;;;;;;;5056535;28;20563;-64
2021/09/27 05:34:27;;;;;;;11.95;2.70;;;;;;;;;;5058077;28;20064;-64
2021/09/27 05:37:03;;;;;;;9.23;2.63;;;;;;;;;;5054240;28;20072;-64
2021/09/27 05:39:38;;;;;;;12.88;3.00;;;;;;;;;;5065266;28;20085;-64
2021/09/27 05:42:17;;;;;;;11.48;2.58;;;;;;;;;;5059306;28;20139;-64
2021/09/27 05:45:00;;;;;;;11.82;2.45;;;;;;;;;;5060460;28;20479;-64
2021/09/27 05:47:27;;;;;;;8.77;2.20;;;;;;;;;;5058376;28;20099;-64
2021/09/27 05:50:00;;;;;;;12.30;2.72;;;;;;;;;;5064034;28;20461;-64
2021/09/27 05:52:32;;;;;;;8.82;2.38;;;;;;;;;;5063896;28;20080;-64
2021/09/27 05:55:11;;;;;;;7.13;2.20;;;;;;;;;;5060842;28;20102;-64
2021/09/27 05:57:37;;;;;;;8.05;2.45;;;;;;;;;;5061898;28;20556;-64
2021/09/27 06:00:22;;;;;;;9.55;2.33;;;;;;;;;;5064973;28;20510;-64
2021/09/27 06:02:56;;;;;;;15.23;2.30;;;;;;;;;;5060687;28;20128;-64
2021/09/27 06:05:30;;;;;;;7.65;2.42;;;;;;;;;;5066987;28;20079;-64
2021/09/27 06:08:05;;;;;;;6.93;2.13;;;;;;;;;;5059950;28;20049;-64
2021/09/27 06:10:38;;;;;;;14.95;2.42;;;;;;;;;;5058637;28;20128;-65
2021/09/27 06:13:04;;;;;;;11.60;2.70;;;;;;;;;;5062813;28;20052;-64
2021/09/27 06:15:43;;;;;;;15.93;2.60;;;;;;;;;;5059139;28;20141;-64
2021/09/27 06:18:11;;;;;;;9.45;2.42;;;;;;;;;;5055864;28;20088;-64
2021/09/27 06:20:56;;;;;;;11.00;2.42;;;;;;;;;;5063399;28;20088;-64
2021/09/27 06:23:34;;;;;;;13.25;2.80;;;;;;;;;;5056787;28;20123;-64
2021/09/27 06:26:05;;;;;;;6.80;2.50;;;;;;;;;;5059127;28;20095;-64
2021/09/27 06:28:37;;;;;;;10.93;3.08;;;;;;;;;;5062113;28;20135;-64
2021/09/27 06:31:14;;;;;;;13.98;2.78;;;;;;;;;;5061262;28;20052;-64
2021/09/27 06:33:50;;;;;;;10.60;2.28;;;;;;;;;;5058069;28;20123;-64
2021/09/27 06:36:20;;;;;;;7.97;2.40;;;;;;;;;;5058625;28;20087;-64
2021/09/27 06:38:50;;;;;;;7.90;2.75;;;;;;;;;;5060294;28;20079;-64
2021/09/27 06:41:18;;;;;;;9.88;2.60;;;;;;;;;;5061777;28;20040;-64
2021/09/27 06:43:45;;;;;;;12.07;2.60;;;;;;;;;;5056026;28;20088;-64
2021/09/27 06:46:12;;;;;;;12.88;2.70;;;;;;;;;;5065555;28;20147;-64
2021/09/27 06:48:38;;;;;;;9.95;2.97;;;;;;;;;;5062241;28;20052;-64
2021/09/27 06:51:06;;;;;;;8.20;2.53;;;;;;;;;;5055091;28;20055;-64
2021/09/27 06:53:33;;;;;;;8.95;2.67;;;;;;;;;;5054584;28;20156;-64
2021/09/27 06:56:00;;;;;;;13.50;2.70;;;;;;;;;;5060256;28;20094;-64
2021/09/27 06:58:27;;;;;;;8.15;2.53;;;;;;;;;;5058986;28;20128;-64
2021/09/27 07:00:55;;;;;;;8.88;2.63;;;;;;;;;;5055489;28;20072;-64
2021/09/27 07:03:21;;;;;;;7.90;2.38;;;;;;;;;;5061994;28;20045;-64
2021/09/27 07:05:48;;;;;;;8.77;2.75;;;;;;;;;;5057935;28;20048;-64
2021/09/27 07:08:18;;;;;;;9.48;2.97;;;;;;;;;;5054887;28;20135;-64
2021/09/27 07:10:45;;;;;;;7.65;2.50;;;;;;;;;;5059906;28;20095;-63
2021/09/27 07:13:13;;;;;;;11.32;2.90;;;;;;;;;;5065736;28;20135;-64
2021/09/27 07:15:41;;;;;;;5.97;2.38;;;;;;;;;;5061305;28;20080;-63
2021/09/27 07:18:07;;;;;;;10.80;2.85;;;;;;;;;;5056115;28;20125;-64
2021/09/27 07:20:34;;;;;;;10.32;2.80;;;;;;;;;;5059009;28;20131;-63
2021/09/27 07:23:01;;;;;;;5.57;2.37;;;;;;;;;;5055950;28;20048;-63
2021/09/27 07:25:28;;;;;;;8.02;2.95;;;;;;;;;;5058991;28;20338;-64
2021/09/27 07:27:55;;;;;;;9.25;2.70;;;;;;;;;;5057174;28;20523;-63
2021/09/27 07:30:21;;;;;;;16.33;2.85;;;;;;;;;;5059436;28;20128;-63
2021/09/27 07:32:48;;;;;;;13.00;3.03;;;;;;;;;;5063033;28;20492;-64
2021/09/27 07:35:17;;;;;;;14.25;2.80;;;;;;;;;;5060090;28;20236;-63
2021/09/27 07:37:43;;;;;;;12.80;3.30;;;;;;;;;;5067031;28;20041;-64
2021/09/27 07:40:13;;;;;;;7.68;3.28;;;;;;;;;;5065719;28;20060;-63
2021/09/27 07:42:40;;;;;;;8.30;3.10;;;;;;;;;;5046561;28;20109;-64
2021/09/27 07:45:07;;;;;;;15.17;3.20;;;;;;;;;;5060410;28;20052;-64
2021/09/27 07:47:34;;;;;;;10.25;3.08;;;;;;;;;;5059247;28;20484;-63
2021/09/27 07:50:00;;;;;;;9.23;2.78;;;;;;;;;;5066163;28;20146;-64
2021/09/27 07:52:27;;;;;;;8.67;2.97;;;;;;;;;;5059074;28;20139;-64
2021/09/27 07:54:53;;;;;;;10.73;2.83;;;;;;;;;;5059144;28;20139;-64
2021/09/27 07:57:19;;;;;;;11.52;2.88;;;;;;;;;;5060087;28;20132;-64
2021/09/27 07:59:48;;;;;;;9.63;3.17;;;;;;;;;;5056394;28;20053;-64
2021/09/27 08:02:18;;;;;;;10.23;2.60;;;;;;;;;;5058240;28;20083;-64
2021/09/27 08:04:45;;;;;;;10.63;2.75;;;;;;;;;;5061867;28;20099;-64
2021/09/27 08:07:12;;;;;;;12.60;3.67;;;;;;;;;;5063662;28;20076;-64
2021/09/27 08:09:39;;;;;;;9.80;3.05;;;;;;;;;;5061592;28;20390;-64
2021/09/27 08:12:05;;;;;;;7.90;2.80;;;;;;;;;;5064871;28;20557;-64
2021/09/27 08:14:32;;;;;;;13.18;3.70;;;;;;;;;;5059888;28;20492;-64
2021/09/27 08:16:58;;;;;;;10.50;2.85;;;;;;;;;;5064822;28;20050;-64
2021/09/27 08:19:25;;;;;;;9.65;3.53;;;;;;;;;;5063524;28;20077;-64
2021/09/27 08:21:52;;;;;;;15.80;3.17;;;;;;;;;;5061013;28;20614;-63
2021/09/27 08:24:19;;;;;;;9.20;2.97;;;;;;;;;;5061574;28;20091;-64
2021/09/27 08:26:46;;;;;;;15.97;3.50;;;;;;;;;;5064706;28;20095;-64
2021/09/27 08:29:13;;;;;;;9.50;3.03;;;;;;;;;;5062461;28;20127;-63
2021/09/27 08:31:40;;;;;;;9.30;3.00;;;;;;;;;;5064377;28;20136;-64
2021/09/27 08:34:07;;;;;;;;;;;;;;;;;;5061583;28;20282;-64
2021/09/27 08:36:35;;;;;;;13.15;3.15;;;;;;;;;;5059758;28;20019;-64
2021/09/27 08:39:03;;;;;;;14.55;3.42;;;;;;;;;;5066266;28;20132;-64
2021/09/27 08:41:37;;;;;;;11.07;3.50;;;;;;;;;;5065390;28;20131;-64
2021/09/27 08:44:23;;;;;;;15.98;3.38;;;;;;;;;;5062605;28;20322;-64
2021/09/27 08:46:49;;;;;;;13.95;3.85;;;;;;;;;;5058687;28;20061;-64
2021/09/27 08:49:35;;;;;;;9.18;3.17;;;;;;;;;;5070542;28;20037;-64
2021/09/27 08:52:02;;;;;;;11.80;3.50;;;;;;;;;;5059412;28;20080;-64
2021/09/27 08:54:30;;;;;;;8.93;3.53;;;;;;;;;;5058015;28;20084;-64
2021/09/27 08:57:00;;;;;;;12.93;3.70;;;;;;;;;;5060394;28;20135;-64
2021/09/27 08:59:42;;;;;;;14.63;3.40;;;;;;;;;;5060296;28;20140;-64
2021/09/27 09:02:10;;;;;;;11.07;4.05;;;;;;;;;;5056640;28;20577;-63
2021/09/27 09:04:37;;;;;;;;;;;;;;;;;;5057169;28;20489;-63
2021/09/27 09:07:06;;;;;;;14.40;3.83;;;;;;;;;;5064215;28;19967;-63
2021/09/27 09:09:39;;;;;;;15.43;4.28;;;;;;;;;;5065432;28;20049;-63
2021/09/27 09:12:14;;;;;;;17.35;4.50;;;;;;;;;;5060814;28;20044;-63
2021/09/27 09:14:43;;;;;;;12.07;3.65;;;;;;;;;;5061610;28;20087;-63
2021/09/27 09:17:32;;;;;;;18.90;4.28;;;;;;;;;;5063833;28;20101;-63
2021/09/27 09:19:58;;;;;;;;;;;;;;;;;;5059546;28;20045;-63
2021/09/27 09:22:26;;;;;;;19.05;4.82;;;;;;;;;;5064445;28;19974;-63
2021/09/27 09:24:53;;;;;;;13.80;4.13;;;;;;;;;;5059499;28;20063;-63
2021/09/27 09:27:21;;;;;;;13.55;4.38;;;;;;;;;;5058378;28;20682;-63
2021/09/27 09:29:48;;;;;;;17.63;4.70;;;;;;;;;;5066690;28;20531;-63
2021/09/27 09:32:17;;;;;;;17.50;5.28;;;;;;;;;;5060854;28;20076;-65
2021/09/27 09:34:44;;;;;;;12.75;5.18;;;;;;;;;;5062213;28;20045;-64
2021/09/27 09:37:34;;;;;;;15.53;5.37;;;;;;;;;;5067062;28;20056;-64
2021/09/27 09:40:04;;;;;;;14.40;5.05;;;;;;;;;;5051362;28;20366;-63
2021/09/27 09:42:32;;;;;;;13.10;5.53;;;;;;;;;;5059940;28;20618;-63
2021/09/27 09:45:18;;;;;;;12.23;5.15;;;;;;;;;;5059880;28;20480;-63
2021/09/27 09:47:45;;;;;;;17.77;5.45;;;;;;;;;;5059941;28;20049;-63
2021/09/27 09:50:14;;;;;;;16.98;5.88;;;;;;;;;;5062686;28;20129;-63
2021/09/27 09:52:41;;;;;;;12.07;4.90;;;;;;;;;;5058684;28;20136;-63
2021/09/27 09:55:30;;;;;;;16.98;5.50;;;;;;;;;;5063693;28;20103;-63
2021/09/27 09:57:58;;;;;;;15.75;5.75;;;;;;;;;;5059398;28;20128;-63
2021/09/27 10:00:44;;;;;;;18.38;5.30;;;;;;;;;;5059118;28;20079;-63
2021/09/27 10:03:12;;;;;;;12.13;5.25;;;;;;;;;;5060927;28;20393;-63
2021/09/27 10:05:44;;;;;;;14.35;5.22;;;;;;;;;;5058943;28;20075;-63
2021/09/27 10:08:15;;;;;;;12.85;5.38;;;;;;;;;;5057712;28;20592;-63
2021/09/27 10:10:43;;;;;;;20.33;6.13;;;;;;;;;;5059213;28;20098;-63
2021/09/27 10:13:27;;;;;;;13.82;5.70;;;;;;;;;;5062488;28;20090;-63
2021/09/27 10:15:54;;;;;;;17.30;5.95;;;;;;;;;;5060175;28;20543;-63
2021/09/27 10:18:26;;;;;;;16.45;6.57;;;;;;;;;;5064320;28;20086;-63
2021/09/27 10:20:57;;;;;;;13.95;5.80;;;;;;;;;;5054810;28;20099;-63
2021/09/27 10:23:35;;;;;;;23.45;6.30;;;;;;;;;;5059474;28;20156;-63
2021/09/27 10:26:15;;;;;;;20.38;5.90;;;;;;;;;;5060159;28;20508;-63
2021/09/27 10:28:42;;;;;;;18.98;6.82;;;;;;;;;;5061904;28;20420;-63
2021/09/27 10:31:09;;;;;;;15.35;5.60;;;;;;;;;;5058072;28;20144;-63
2021/09/27 10:33:38;;;;;;;15.02;5.43;;;;;;;;;;5056408;28;20075;-62
2021/09/27 10:36:14;;;;;;;13.18;6.07;;;;;;;;;;5063206;28;20397;-63
2021/09/27 10:38:43;;;;;;;17.90;5.65;;;;;;;;;;5063813;28;20140;-63
2021/09/27 10:41:22;;;;;;;15.32;6.07;;;;;;;;;;5060686;28;20053;-63
2021/09/27 10:43:49;;;;;;;14.63;5.93;;;;;;;;;;5056263;28;20614;-63
2021/09/27 10:46:16;;;;;;;;;;;;;;;;;;5060267;28;20096;-63
2021/09/27 10:48:46;;;;;;;18.13;6.35;;;;;;;;;;5060025;28;20411;-63
2021/09/27 10:51:13;;;;;;;18.75;5.78;;;;;;;;;;5062757;28;20073;-63
2021/09/27 10:53:51;;;;;;;15.13;5.47;;;;;;;;;;5058334;28;20583;-62
2021/09/27 10:56:23;;;;;;;18.38;6.43;;;;;;;;;;5061931;28;20410;-63
2021/09/27 10:58:53;;;;;;;17.67;5.78;;;;;;;;;;5060384;28;20135;-63
2021/09/27 11:01:39;;;;;;;14.98;6.00;;;;;;;;;;5058315;28;20080;-63
2021/09/27 11:04:10;;;;;;;15.93;6.20;;;;;;;;;;5057677;28;20053;-63
2021/09/27 11:06:56;;;;;;;11.07;5.53;;;;;;;;;;5059774;28;20566;-63
2021/09/27 11:09:28;;;;;;;14.30;5.50;;;;;;;;;;5059940;28;20055;-63
2021/09/27 11:11:56;;;;;;;17.52;6.13;;;;;;;;;;5060238;28;20135;-63
2021/09/27 11:14:41;;;;;;;13.05;5.50;;;;;;;;;;5056181;28;20512;-62
2021/09/27 11:17:07;;;;;;;10.82;5.72;;;;;;;;;;5066054;28;20066;-63
2021/09/27 11:19:34;;;;;;;13.27;5.67;;;;;;;;;;5061331;28;20096;-63
2021/09/27 11:22:13;;;;;;;14.55;5.72;;;;;;;;;;5059709;28;20057;-63
2021/09/27 11:24:42;;;;;;;13.45;6.03;;;;;;;;;;5058681;28;20124;-63
2021/09/27 11:27:18;;;;;;;12.27;5.80;;;;;;;;;;5059129;28;20140;-62
2021/09/27 11:29:51;;;;;;;13.70;6.28;;;;;;;;;;5059102;28;20087;-62
2021/09/27 11:32:20;;;;;;;13.57;6.05;;;;;;;;;;5055774;28;20132;-62
2021/09/27 11:34:55;;;;;;;14.30;6.10;;;;;;;;;;5054252;28;20600;-62
2021/09/27 11:37:25;;;;;;;12.57;5.85;;;;;;;;;;5058798;28;20081;-62
2021/09/27 11:40:00;;;;;;;10.45;5.80;;;;;;;;;;5056876;28;20146;-63
2021/09/27 11:42:42;;;;;;;10.82;5.10;;;;;;;;;;5058355;28;20053;-62
2021/09/27 11:45:34;;;;;;;14.00;5.68;;;;;;;;;;5056284;28;20139;-62
2021/09/27 11:48:17;;;;;;;12.48;5.70;;;;;;;;;;5054022;28;20057;-62
2021/09/27 11:50:51;;;;;;;12.80;5.88;;;;;;;;;;5057962;28;20515;-62
2021/09/27 11:53:18;;;;;;;9.50;5.93;;;;;;;;;;5061032;28;20084;-62
2021/09/27 11:55:49;;;;;;;11.10;5.57;;;;;;;;;;5052163;28;20049;-62
2021/09/27 11:58:29;;;;;;;15.85;6.30;;;;;;;;;;5054898;28;20132;-62
2021/09/27 12:01:00;;;;;;;9.35;5.35;;;;;;;;;;5060839;28;20072;-64
2021/09/27 12:03:29;;;;;;;10.82;5.07;;;;;;;;;;5056341;28;20049;-64
2021/09/27 12:06:05;;;;;;;8.82;5.13;;;;;;;;;;5059789;28;20152;-64
2021/09/27 12:08:36;;;;;;;14.65;5.53;;;;;;;;;;5057883;28;20135;-64
2021/09/27 12:11:05;;;;;;;12.65;5.03;;;;;;;;;;5058550;28;20163;-64
2021/09/27 12:13:45;;;;;;;13.85;5.18;;;;;;;;;;5062285;28;20136;-64
2021/09/27 12:16:15;;;;;;;16.38;5.80;;;;;;;;;;5059840;28;20111;-64
2021/09/27 12:18:43;;;;;;;9.32;5.00;;;;;;;;;;5063869;28;20151;-64
2021/09/27 12:21:13;;;;;;;10.05;5.07;;;;;;;;;;5064306;28;20467;-64
2021/09/27 12:23:45;;;;;;;13.40;5.30;;;;;;;;;;5067589;28;20052;-64
2021/09/27 12:26:20;;;;;;;10.25;4.97;;;;;;;;;;5065597;28;20080;-64
2021/09/27 12:28:47;;;;;;;12.70;5.18;;;;;;;;;;5067018;28;20076;-64
2021/09/27 12:31:14;;;;;;;12.10;5.50;;;;;;;;;;5065441;28;20092;-64
2021/09/27 12:33:41;;;;;;;11.93;5.22;;;;;;;;;;5058085;28;20045;-63
2021/09/27 12:36:19;;;;;;;9.90;5.07;;;;;;;;;;5067334;28;20049;-64
2021/09/27 12:38:47;;;;;;;8.48;4.90;;;;;;;;;;5061923;28;20059;-63
2021/09/27 12:41:15;;;;;;;10.52;4.28;;;;;;;;;;5056653;28;20088;-63
2021/09/27 12:43:41;;;;;;;8.75;4.90;;;;;;;;;;5059786;28;20135;-64
2021/09/27 12:46:16;;;;;;;9.13;4.60;;;;;;;;;;5059475;28;20503;-63
2021/09/27 12:48:46;;;;;;;12.35;4.68;;;;;;;;;;5061310;28;20420;-63
2021/09/27 12:51:17;;;;;;;12.50;4.75;;;;;;;;;;5063926;28;20563;-63
2021/09/27 12:53:47;;;;;;;8.98;4.85;;;;;;;;;;5057335;28;20059;-63
2021/09/27 12:56:14;;;;;;;17.60;8.35;;;;;;;;;;5060431;28;20080;-63
2021/09/27 12:59:01;;;;;;;12.93;5.30;;;;;;;;;;5066149;28;20087;-64
2021/09/27 13:01:29;;;;;;;11.05;6.05;;;;;;;;;;5064978;28;20725;-63
2021/09/27 13:03:58;;;;;;;14.43;5.15;;;;;;;;;;5060238;28;20079;-63
2021/09/27 13:06:27;;;;;;;11.98;4.82;;;;;;;;;;5060278;28;20493;-63
2021/09/27 13:09:19;;;;;;;10.27;4.55;;;;;;;;;;5061378;28;20128;-63
2021/09/27 13:11:51;;;;;;;9.25;4.95;;;;;;;;;;5061913;28;20084;-63
2021/09/27 13:14:19;;;;;;;10.18;4.70;;;;;;;;;;5061454;28;20045;-64
2021/09/27 13:16:48;;;;;;;11.27;5.07;;;;;;;;;;5058619;28;20049;-63
2021/09/27 13:19:33;;;;;;;8.20;4.95;;;;;;;;;;5059649;28;20076;-64
2021/09/27 13:22:00;;;;;;;9.80;4.60;;;;;;;;;;5061506;28;20455;-63
2021/09/27 13:24:29;;;;;;;8.80;4.45;;;;;;;;;;5060665;28;20119;-64
2021/09/27 13:27:00;;;;;;;6.90;4.70;;;;;;;;;;5065134;28;20052;-64
2021/09/27 13:29:36;;;;;;;8.40;4.53;;;;;;;;;;5061223;28;20052;-64
2021/09/27 13:32:03;;;;;;;8.65;4.90;;;;;;;;;;5062027;28;20097;-63
2021/09/27 13:34:32;;;;;;;10.43;5.10;;;;;;;;;;5061752;28;20051;-63
2021/09/27 13:37:00;;;;;;;11.88;4.93;;;;;;;;;;5065466;28;20052;-63
2021/09/27 13:39:28;;;;;;;9.52;5.28;;;;;;;;;;5060984;28;20079;-63
2021/09/27 13:41:57;;;;;;;13.25;5.18;;;;;;;;;;5064832;28;20080;-64
2021/09/27 13:44:29;;;;;;;10.13;5.25;;;;;;;;;;5057684;28;20139;-63
2021/09/27 13:46:56;;;;;;;13.27;5.10;;;;;;;;;;5069850;28;20132;-63
2021/09/27 13:49:22;;;;;;;8.73;4.97;;;;;;;;;;5061703;28;20430;-64
2021/09/27 13:51:49;;;;;;;11.25;5.93;;;;;;;;;;5063209;28;20463;-64
2021/09/27 13:54:16;;;;;;;7.75;4.47;;;;;;;;;;5061078;28;20509;-63
2021/09/27 13:56:43;;;;;;;7.85;4.60;;;;;;;;;;5055164;28;20048;-64
2021/09/27 13:59:09;;;;;;;11.40;4.35;;;;;;;;;;5058002;28;20124;-63
2021/09/27 14:01:36;;;;;;;5.70;4.20;;;;;;;;;;5056571;28;20133;-64
2021/09/27 14:04:02;;;;;;;7.80;4.45;;;;;;;;;;5058012;28;20574;-64
2021/09/27 14:06:29;;;;;;;8.70;4.88;;;;;;;;;;5055043;28;20151;-63
2021/09/27 14:08:57;;;;;;;9.93;4.30;;;;;;;;;;5059589;28;20099;-64
2021/09/27 14:11:23;;;;;;;7.18;4.18;;;;;;;;;;5056429;28;20128;-64
2021/09/27 14:13:51;;;;;;;6.97;4.50;;;;;;;;;;5060270;28;20084;-64
2021/09/27 14:16:19;;;;;;;15.35;5.13;;;;;;;;;;5060890;28;20159;-63
2021/09/27 14:18:46;;;;;;;;;;;;;;;;;;5060785;28;20517;-64
2021/09/27 14:21:13;;;;;;;9.32;4.43;;;;;;;;;;5059306;28;20027;-64
2021/09/27 14:23:43;;;;;;;11.95;4.78;;;;;;;;;;5064789;28;20048;-64
2021/09/27 14:26:10;;;;;;;8.90;4.72;;;;;;;;;;5066607;28;20056;-63
2021/09/27 14:28:37;;;;;;;8.13;4.75;;;;;;;;;;5045501;28;20524;-64
2021/09/27 14:31:07;;;;;;;8.15;4.80;;;;;;;;;;5041596;28;20087;-64
2021/09/27 14:33:37;;;;;;;7.68;5.47;;;;;;;;;;5059799;28;20077;-63
2021/09/27 14:36:06;;;;;;;10.60;4.93;;;;;;;;;;5061818;28;20072;-64
2021/09/27 14:38:32;;;;;;;;;;;;;;;;;;5062067;28;20535;-64
2021/09/27 14:40:58;;;;;;;7.97;4.72;;;;;;;;;;5057527;28;19924;-64
2021/09/27 14:43:26;;;;;;;11.88;5.38;;;;;;;;;;5061947;28;20132;-64
2021/09/27 14:45:53;;;;;;;7.13;4.78;;;;;;;;;;5058700;28;20076;-64
2021/09/27 14:48:19;;;;;;;7.97;4.78;;;;;;;;;;5060466;28;20083;-64
2021/09/27 14:50:52;;;;;;;13.50;4.93;;;;;;;;;;5054863;28;20468;-64
2021/09/27 14:53:23;;;;;;;8.48;4.70;;;;;;;;;;5058249;28;20285;-64
2021/09/27 14:55:51;;;;;;;10.27;4.65;;;;;;;;;;5057040;28;20137;-64
2021/09/27 14:58:19;;;;;;;8.40;4.90;;;;;;;;;;5061898;28;20147;-64
2021/09/27 15:00:46;;;;;;;12.52;6.35;;;;;;;;;;5061445;28;20139;-64
2021/09/27 15:03:14;;;;;;;7.80;5.60;;;;;;;;;;5059409;28;20052;-64